Map

Track Data

SID SEASON NUMBER BASIN SUBBASIN NAME ISO_TIME NATURE LAT LON WMO_WIND WMO_PRES WMO_AGENCY TRACK_TYPE DIST2LAND LANDFALL IFLAG USA_AGENCY USA_ATCF_ID USA_LAT USA_LON USA_RECORD USA_STATUS USA_WIND USA_PRES USA_SSHS USA_R34_NE USA_R34_SE USA_R34_SW USA_R34_NW USA_R50_NE USA_R50_SE USA_R50_SW USA_R50_NW USA_R64_NE USA_R64_SE USA_R64_SW USA_R64_NW USA_POCI USA_ROCI USA_RMW USA_EYE TOKYO_LAT TOKYO_LON TOKYO_GRADE TOKYO_WIND TOKYO_PRES TOKYO_R50_DIR TOKYO_R50_LONG TOKYO_R50_SHORT TOKYO_R30_DIR TOKYO_R30_LONG TOKYO_R30_SHORT TOKYO_LAND CMA_LAT CMA_LON CMA_CAT CMA_WIND CMA_PRES HKO_LAT HKO_LON HKO_CAT HKO_WIND HKO_PRES NEWDELHI_LAT NEWDELHI_LON NEWDELHI_GRADE NEWDELHI_WIND NEWDELHI_PRES NEWDELHI_CI NEWDELHI_DP NEWDELHI_POCI REUNION_LAT REUNION_LON REUNION_TYPE REUNION_WIND REUNION_PRES REUNION_TNUM REUNION_CI REUNION_RMW REUNION_R34_NE REUNION_R34_SE REUNION_R34_SW REUNION_R34_NW REUNION_R50_NE REUNION_R50_SE REUNION_R50_SW REUNION_R50_NW REUNION_R64_NE REUNION_R64_SE REUNION_R64_SW REUNION_R64_NW BOM_LAT BOM_LON BOM_TYPE BOM_WIND BOM_PRES BOM_TNUM BOM_CI BOM_RMW BOM_R34_NE BOM_R34_SE BOM_R34_SW BOM_R34_NW BOM_R50_NE BOM_R50_SE BOM_R50_SW BOM_R50_NW BOM_R64_NE BOM_R64_SE BOM_R64_SW BOM_R64_NW BOM_ROCI BOM_POCI BOM_EYE BOM_POS_METHOD BOM_PRES_METHOD NADI_LAT NADI_LON NADI_CAT NADI_WIND NADI_PRES WELLINGTON_LAT WELLINGTON_LON WELLINGTON_WIND WELLINGTON_PRES DS824_LAT DS824_LON DS824_STAGE DS824_WIND DS824_PRES TD9636_LAT TD9636_LON TD9636_STAGE TD9636_WIND TD9636_PRES TD9635_LAT TD9635_LON TD9635_WIND TD9635_PRES TD9635_ROCI NEUMANN_LAT NEUMANN_LON NEUMANN_CLASS NEUMANN_WIND NEUMANN_PRES MLC_LAT MLC_LON MLC_CLASS MLC_WIND MLC_PRES USA_GUST BOM_GUST BOM_GUST_PER REUNION_GUST REUNION_GUST_PER USA_SEAHGT USA_SEARAD_NE USA_SEARAD_SE USA_SEARAD_SW USA_SEARAD_NW STORM_SPEED STORM_DIR
1983186N04153 1983 29 WP MM VERA 1983-07-05 00:00:00 NR 4.00000 153.000 main 786 786 __________O___ -1 4.00000 153.000 0 15 318
1983186N04153 1983 29 WP MM VERA 1983-07-05 03:00:00 NR 4.55348 152.493 main 837 834 __________P___ -1 4.55348 152.493 0 15 318
1983186N04153 1983 29 WP MM VERA 1983-07-05 06:00:00 NR 5.09716 151.997 main 882 882 __________P___ -1 5.09716 151.997 0 14 318
1983186N04153 1983 29 WP MM VERA 1983-07-05 09:00:00 NR 5.62105 151.526 main 932 932 __________P___ -1 5.62105 151.526 0 14 319
1983186N04153 1983 29 WP MM VERA 1983-07-05 12:00:00 NR 6.11523 151.093 main 986 986 __________P___ -1 6.11523 151.093 0 13 319
1983186N04153 1983 29 WP MM VERA 1983-07-05 15:00:00 NR 6.56988 150.711 main 1041 1041 __________P___ -1 6.56988 150.711 0 11 321
1983186N04153 1983 29 WP MM VERA 1983-07-05 18:00:00 NR 6.97529 150.393 main 1072 1069 __________P___ -1 6.97529 150.393 0 9 324
1983186N04153 1983 29 WP MM VERA 1983-07-05 21:00:00 NR 7.32184 150.151 main 1098 1095 __________P___ -1 7.32184 150.151 0 7 328
1983186N04153 1983 29 WP MM VERA 1983-07-06 00:00:00 NR 7.60000 150.000 main 1124 1124 __________O___ -1 7.60000 150.000 0 5 336
1983186N04153 1983 29 WP MM VERA 1983-07-06 03:00:00 NR 7.80589 149.942 main 1143 1143 __________P___ -1 7.80589 149.942 0 4 351
1983186N04153 1983 29 WP MM VERA 1983-07-06 06:00:00 NR 7.95828 149.938 main 1165 1165 __________P___ -1 7.95828 149.938 0 3 354
1983186N04153 1983 29 WP MM VERA 1983-07-06 09:00:00 NR 8.08153 149.940 main 1176 1176 __________P___ -1 8.08153 149.940 0 2 352
1983186N04153 1983 29 WP MM VERA 1983-07-06 12:00:00 NR 8.20000 149.900 main 1187 1187 __________O___ -1 8.20000 149.900 0 4 324
1983186N04153 1983 29 WP MM VERA 1983-07-06 15:00:00 NR 8.36636 149.730 main 1203 1201 __________P___ -1 8.36636 149.730 0 5 311
1983186N04153 1983 29 WP MM VERA 1983-07-06 18:00:00 NR 8.53016 149.515 main 1210 1210 __________P___ -1 8.53016 149.515 0 5 306
1983186N04153 1983 29 WP MM VERA 1983-07-06 21:00:00 NR 8.67887 149.293 main 1228 1226 __________P___ -1 8.67887 149.293 0 5 303
1983186N04153 1983 29 WP MM VERA 1983-07-07 00:00:00 NR 8.80000 149.100 main 1235 1234 __________O___ -1 8.80000 149.100 0 4 304
1983186N04153 1983 29 WP MM VERA 1983-07-07 03:00:00 NR 8.87867 148.997 main 1245 1243 __________P___ -1 8.87867 148.997 0 2 307
1983186N04153 1983 29 WP MM VERA 1983-07-07 06:00:00 NR 8.92990 148.927 main 1243 1243 __________P___ -1 8.92990 148.927 0 2 305
1983186N04153 1983 29 WP MM VERA 1983-07-07 09:00:00 NR 8.96618 148.869 main 1254 1253 __________P___ -1 8.96618 148.869 0 1 299
1983186N04153 1983 29 WP MM VERA 1983-07-07 12:00:00 NR 9.00000 148.800 main 1253 1252 __________O___ -1 9.00000 148.800 0 2 293
1983186N04153 1983 29 WP MM VERA 1983-07-07 15:00:00 NR 9.04189 148.685 main 1252 1252 __________P___ -1 9.04189 148.685 0 3 289
1983186N04153 1983 29 WP MM VERA 1983-07-07 18:00:00 NR 9.08502 148.557 main 1262 1259 __________P___ -1 9.08502 148.557 0 3 290
1983186N04153 1983 29 WP MM VERA 1983-07-07 21:00:00 NR 9.13564 148.426 main 1259 1259 __________P___ -1 9.13564 148.426 0 3 295
1983186N04153 1983 29 WP MM VERA 1983-07-08 00:00:00 NR 9.20000 148.300 main 1270 1269 __________O___ -1 9.20000 148.300 0 3 307
1983186N04153 1983 29 WP MM VERA 1983-07-08 03:00:00 NR 9.29369 148.209 main 1280 1280 __________P___ -1 9.29369 148.209 0 3 318
1983186N04153 1983 29 WP MM VERA 1983-07-08 06:00:00 NR 9.39991 148.122 main 1290 1290 __________P___ -1 9.39991 148.122 0 3 319
1983186N04153 1983 29 WP MM VERA 1983-07-08 09:00:00 NR 9.50618 148.025 main 1301 1301 __________P___ -1 9.50618 148.025 0 3 312
1983186N04153 1983 29 WP MM VERA 1983-07-08 12:00:00 NR 9.60000 147.900 main 1312 1311 __________O___ -1 9.60000 147.900 0 3 308
1983186N04153 1983 29 WP MM VERA 1983-07-08 15:00:00 NR 9.70483 147.766 main 1322 1322 __________P___ -1 9.70483 147.766 0 4 302
1983186N04153 1983 29 WP MM VERA 1983-07-08 18:00:00 NR 9.78970 147.598 main 1333 1333 __________P___ -1 9.78970 147.598 0 4 288
1983186N04153 1983 29 WP MM VERA 1983-07-08 21:00:00 NR 9.82973 147.381 main 1333 1333 __________P___ -1 9.82973 147.381 0 5 271
1983186N04153 1983 29 WP MM VERA 1983-07-09 00:00:00 NR 9.80000 147.100 main 1333 1322 __________O___ -1 9.80000 147.100 0 6 255
1983186N04153 1983 29 WP MM VERA 1983-07-09 03:00:00 NR 9.66375 146.756 main 1322 1299 __________P___ -1 9.66375 146.756 0 8 247
1983186N04153 1983 29 WP MM VERA 1983-07-09 06:00:00 NR 9.46796 146.318 main 1300 1278 O_________P___ jtwc_wp WP031983 9.50000 146.200 20 -1 9.45995 146.347 0 10 244
1983186N04153 1983 29 WP MM VERA 1983-07-09 09:00:00 NR 9.23749 145.856 main 1268 1249 P_________P___ WP031983 9.26016 145.787 20 -1 9.22616 145.890 0 10 243
1983186N04153 1983 29 WP MM VERA 1983-07-09 12:00:00 NR 9.00000 145.400 main 1250 1231 O_________O___ jtwc_wp WP031983 9.00000 145.400 20 -1 9.00000 145.400 1 20 10 240
1983186N04153 1983 29 WP MM VERA 1983-07-09 15:00:00 NR 8.74696 144.995 main 1223 1208 P_________P___ WP031983 8.71982 145.037 20 -1 8.77411 144.952 1 20 10 242
1983186N04153 1983 29 WP MM VERA 1983-07-09 18:00:00 NR 8.53579 144.534 main 1210 1203 O_________P___ jtwc_wp WP031983 8.50000 144.600 20 -1 8.57157 144.469 1 20 11 251
1983186N04153 1983 29 WP MM VERA 1983-07-09 21:00:00 NR 8.40042 143.957 main 1211 1211 P_________P___ WP031983 8.36755 143.987 20 -1 8.43329 143.927 1 20 12 266
1983186N04153 1983 29 WP MM VERA 1983-07-10 00:00:00 TS 8.44444 143.322 main 1232 1232 O_O_______O___ jtwc_wp WP031983 8.40000 143.300 20 -1 8.80000 143.500 1 23 1008 8.40000 143.300 1 20 13 282
1983186N04153 1983 29 WP MM VERA 1983-07-10 03:00:00 TS 8.66539 142.670 main 1257 1242 P_P_______P___ WP031983 8.66958 142.703 22 -1 8.91243 142.813 1 23 1006 8.53769 142.566 1 21 16 287
1983186N04153 1983 29 WP MM VERA 1983-07-10 06:00:00 TS 8.92507 141.750 1006 tokyo main 1238 1227 OOO_______P___ jtwc_wp WP031983 9.00000 142.000 25 -1 9.00000 140.000 2 1006 0 0 0 9.00000 142.000 1 23 1005 8.77521 141.749 1 22 20 282
1983186N04153 1983 29 WP MM VERA 1983-07-10 09:00:00 TS 9.07521 140.718 main 1230 1197 PPP_______P___ WP031983 9.18766 141.045 25 -1 8.95042 139.175 2 1007 0 0 9.05029 141.000 1 23 1005 9.05006 140.882 1 23 21 277
1983186N04153 1983 29 WP MM VERA 1983-07-10 12:00:00 TS 9.18667 139.680 1008 tokyo main 1197 1175 OOO_______O___ jtwc_wp WP031983 9.30000 140.000 25 -1 9.00000 138.400 2 1008 0 0 0 9.10000 140.000 1 23 1005 9.30000 140.000 1 25 19 276
1983186N04153 1983 29 WP MM VERA 1983-07-10 15:00:00 TS 9.29249 138.769 main 1175 1162 PPP_______P___ WP031983 9.34991 139.012 25 -1 9.21233 137.713 2 1007 0 0 9.19189 139.242 1 26 1004 9.41583 139.108 1 25 17 278
1983186N04153 1983 29 WP MM VERA 1983-07-10 18:00:00 TS 9.42511 137.979 1006 tokyo main 1162 1157 OOO_______P___ jtwc_wp WP031983 9.40000 138.100 25 -1 9.50000 137.100 2 1006 0 0 0 9.30000 138.500 1 29 1004 9.50042 138.217 1 25 16 280
1983186N04153 1983 29 WP MM VERA 1983-07-10 21:00:00 TS 9.56931 137.176 main 1167 1111 PPP_______P___ WP031983 9.52726 137.298 25 -1 9.77243 136.513 2 1006 0 0 9.39284 137.527 1 29 1004 9.58471 137.367 1 25 15 281
1983186N04153 1983 29 WP MM VERA 1983-07-11 00:00:00 TS 9.72500 136.450 1006 tokyo main 1111 1052 OOO_______O___ jtwc_wp WP031983 9.70000 136.600 25 -1 10.0000 136.000 2 1006 0 0 0 9.50000 136.600 1 29 1004 9.70000 136.600 1 25 13 284
1983186N04153 1983 29 WP MM VERA 1983-07-11 03:00:00 TS 9.88752 135.860 main 1052 1001 PPP_______P___ WP031983 9.88484 135.962 25 -1 10.1073 135.585 2 1006 0 0 9.64964 135.933 1 29 1004 9.90828 135.960 1 26 11 287
1983186N04153 1983 29 WP MM VERA 1983-07-11 06:00:00 TS 10.0622 135.351 1006 tokyo main 1004 954 OOO_______P___ jtwc_wp WP031983 10.1000 135.400 25 -1 10.2000 135.200 2 1006 0 0 0 9.80000 135.400 1 29 1004 10.1486 135.403 1 27 11 291
1983186N04153 1983 29 WP MM VERA 1983-07-11 09:00:00 TS 10.2636 134.855 main 957 906 PPP_______P___ WP031983 10.3648 134.885 27 -1 10.4000 134.758 2 1006 0 0 9.89985 134.885 1 29 1004 10.3897 134.894 1 28 10 292
1983186N04153 1983 29 WP MM VERA 1983-07-11 12:00:00 TS 10.4500 134.375 1006 tokyo main 908 857 OOO_______O___ jtwc_wp WP031983 10.6000 134.400 30 -1 10.6000 134.300 2 1006 0 0 0 10.0000 134.400 1 29 1004 10.6000 134.400 1 30 10 288
1983186N04153 1983 29 WP MM VERA 1983-07-11 15:00:00 TS 10.5711 133.888 main 857 806 PPP_______P___ WP031983 10.7224 133.907 30 -1 10.6924 133.850 2 1006 0 0 10.1424 133.915 1 29 1004 10.7273 133.879 1 30 10 283
1983186N04153 1983 29 WP MM VERA 1983-07-11 18:00:00 TS 10.6805 133.391 1006 tokyo main 806 755 OOO_______P___ jtwc_wp WP031983 10.8000 133.400 30 -1 10.8000 133.400 2 1006 0 0 0 10.3000 133.400 1 29 1004 10.8218 133.364 1 30 10 284
1983186N04153 1983 29 WP MM VERA 1983-07-11 21:00:00 TS 10.8263 132.877 main 755 708 PPP_______P___ WP031983 10.8849 132.865 30 -1 11.0648 132.973 2 1005 0 0 10.4499 132.830 1 29 1004 10.9054 132.842 1 30 11 286
1983186N04153 1983 29 WP MM VERA 1983-07-12 00:00:00 TS 10.9824 132.324 1004 tokyo main 698 638 OOOO______O___ jtwc_wp WP031983 11.0000 132.300 30 -1 11.3000 132.500 2 1004 0 0 0 10.6000 132.200 1 29 1004 11.1000 132.300 TD 30 1004 11.0000 132.300 1 30 12 284
1983186N04153 1983 29 WP MM VERA 1983-07-12 03:00:00 TS 11.1170 131.713 main 638 579 PPPP______P___ WP031983 11.1999 131.708 30 -1 11.3375 131.915 2 1003 0 0 10.7652 131.478 1 29 1003 11.1026 131.863 TD 30 1003 11.1726 131.678 1 31 12 281
1983186N04153 1983 29 WP MM VERA 1983-07-12 06:00:00 TS 11.2164 131.114 1002 tokyo main 579 525 OOOO______P___ jtwc_wp WP031983 11.4000 131.100 30 -1 11.3000 131.300 2 1002 0 0 0 10.9000 130.800 1 29 1002 11.1000 131.400 TD 30 1002 11.3531 131.041 1 32 11 278
1983186N04153 1983 29 WP MM VERA 1983-07-12 09:00:00 TS 11.2833 130.567 main 525 470 PPPP______P___ WP031983 11.5451 130.463 32 -1 11.3074 130.735 2 1001 0 0 10.9648 130.305 1 29 1001 11.0925 130.900 TD 32 1001 11.5070 130.434 1 33 10 276
1983186N04153 1983 29 WP MM VERA 1983-07-12 12:00:00 TS 11.3200 130.060 1000 tokyo main 470 416 OOOO______O___ jtwc_wp WP031983 11.6000 129.900 35 0 11.3000 130.200 2 1000 0 0 0 11.0000 129.900 1 29 1000 11.1000 130.400 TS 35 1000 11.6000 129.900 2 35 9 271
1983186N04153 1983 29 WP MM VERA 1983-07-12 15:00:00 TS 11.3050 129.621 main 416 383 PPPP______P___ WP031983 11.5223 129.505 37 0 11.2500 129.670 2 999 0 0 11.0499 129.485 1 33 997 11.1424 129.943 TS 35 997 11.5605 129.503 2 38 8 267
1983186N04153 1983 29 WP MM VERA 1983-07-12 18:00:00 TS 11.2728 129.236 40 998 tokyo main 372 340 OOOO______P___ jtwc_wp WP031983 11.4000 129.200 40 0 11.2000 129.200 3 40 998 0 9 100 100 0 11.1000 129.100 2 38 995 11.2000 129.500 TS 35 995 11.4640 129.182 2 42 7 266
1983186N04153 1983 29 WP MM VERA 1983-07-12 21:00:00 TS 11.2516 128.875 main 340 307 PPPP______P___ WP031983 11.3349 128.900 45 0 11.1699 128.812 3 42 995 0 9 100 100 11.1424 128.742 2 38 994 11.2500 129.028 TS 37 993 11.3606 128.894 2 46 7 269
1983186N04153 1983 29 WP MM VERA 1983-07-13 00:00:00 TS 11.2600 128.540 45 992 tokyo main 296 264 OOOO______O___ jtwc_wp WP031983 11.3000 128.600 50 0 11.2000 128.500 3 45 992 0 9 100 100 0 11.2000 128.400 2 38 993 11.3000 128.600 TS 40 992 11.3000 128.600 2 50 6 275
1983186N04153 1983 29 WP MM VERA 1983-07-13 03:00:00 TS 11.3079 128.223 main 264 233 PPPP______P___ WP031983 11.2625 128.265 52 0 11.3348 128.265 3 47 991 0 9 100 100 11.2850 128.042 2 43 990 11.3273 128.300 TS 42 995 11.3300 128.244 2 52 6 283
1983186N04153 1983 29 WP MM VERA 1983-07-13 06:00:00 TS 11.4023 127.895 50 990 tokyo main 233 193 OOOO______P___ jtwc_wp WP031983 11.3000 127.900 55 0 11.5000 128.000 4 50 990 0 9 100 100 0 11.4000 127.700 3 48 988 11.4000 128.000 TS 45 998 11.4113 127.874 2 55 7 289
1983186N04153 1983 29 WP MM VERA 1983-07-13 09:00:00 TS 11.5424 127.509 main 193 162 PPPP______P___ WP031983 11.4700 127.508 57 0 11.5851 127.565 4 50 987 0 9 100 100 11.5349 127.415 3 53 986 11.5851 127.565 TS 47 991 11.5368 127.492 2 57 8 292
1983186N04153 1983 29 WP MM VERA 1983-07-13 12:00:00 TS 11.7200 127.100 50 985 tokyo main 162 132 OOOO______O___ jtwc_wp WP031983 11.7000 127.100 60 0 11.7000 127.100 4 50 985 0 9 100 100 0 11.7000 127.100 3 58 984 11.8000 127.100 STS 50 985 11.7000 127.100 2 60 9 295
1983186N04153 1983 29 WP MM VERA 1983-07-13 15:00:00 TS 11.9165 126.704 main 132 87 PPPP______P___ WP031983 11.8999 126.707 62 0 11.9498 126.750 4 50 982 0 9 100 100 11.8851 126.665 3 58 982 11.9574 126.685 STS 55 982 11.8901 126.711 2 62 9 297
1983186N04153 1983 29 WP MM VERA 1983-07-13 18:00:00 TS 12.1200 126.300 50 980 tokyo main 87 44 OOOO______O___ jtwc_wp WP031983 12.1000 126.300 65 1 12.2000 126.400 4 50 980 0 9 100 100 0 12.1000 126.200 3 58 980 12.1000 126.300 STS 60 980 12.1000 126.300 3 65 9 295
1983186N04153 1983 29 WP MM VERA 1983-07-13 21:00:00 TS 12.2939 125.893 main 44 21 PPPP______P___ WP031983 12.2925 125.857 70 1 12.2925 125.972 4 60 977 0 9 100 100 12.3499 125.800 3 63 977 12.2348 125.972 STS 62 977 12.2999 125.863 3 70 9 294
1983186N04153 1983 29 WP MM VERA 1983-07-14 00:00:00 TS 12.4800 125.460 70 975 tokyo main 24 10 OOOO______O___ jtwc_wp WP031983 12.5000 125.400 75 1 12.4000 125.500 5 70 975 9 40 40 9 100 100 0 12.6000 125.400 4 68 975 12.4000 125.600 T 65 975 12.5000 125.400 4 75 10 295
1983186N04153 1983 29 WP MM VERA 1983-07-14 03:00:00 TS 12.7133 124.987 main 22 22 PPPP______P___ WP031983 12.7573 124.965 77 1 12.6775 125.000 5 70 975 9 35 35 9 100 100 12.7999 124.972 4 68 975 12.6350 125.080 T 65 972 12.6965 124.919 4 76 11 297
1983186N04153 1983 29 WP MM VERA 1983-07-14 06:00:00 TS 12.9586 124.484 70 975 tokyo main 43 10 OOOO______P___ jtwc_wp WP031983 13.0000 124.500 80 1 13.0000 124.500 5 70 975 9 30 30 9 100 100 0 13.0000 124.500 4 68 975 12.9000 124.500 T 65 970 12.8930 124.420 4 77 11 295
1983186N04153 1983 29 WP MM VERA 1983-07-14 09:00:00 TS 13.1830 123.971 main 10 0 PPPP______P___ WP031983 13.1500 123.965 80 1 13.2647 124.065 5 70 975 9 30 30 9 100 100 13.2500 123.965 4 63 977 13.1574 123.950 T 67 965 13.0930 123.911 4 78 11 293
1983186N04153 1983 29 WP MM VERA 1983-07-14 12:00:00 TS 13.4000 123.440 70 975 tokyo main 0 0 OOOO______O___ jtwc_wp WP031983 13.3000 123.400 80 1 13.5000 123.600 5 70 975 9 30 30 9 100 100 0 13.5000 123.400 3 58 980 13.4000 123.400 T 70 960 13.3000 123.400 4 80 11 292
1983186N04153 1983 29 WP MM VERA 1983-07-14 15:00:00 TS 13.6140 122.894 main 0 0 PPPP______P___ WP031983 13.5425 122.835 77 1 13.7000 123.022 5 70 975 9 30 30 9 100 100 13.7149 122.850 3 58 980 13.6074 122.850 T 70 960 13.5052 122.912 4 77 11 292
1983186N04153 1983 29 WP MM VERA 1983-07-14 18:00:00 TS 13.8239 122.344 70 975 tokyo main 0 0 OOOO______P___ jtwc_wp WP031983 13.8000 122.300 75 1 13.9000 122.400 5 70 975 9 30 30 9 100 100 0 13.9000 122.300 3 58 980 13.8000 122.300 T 70 960 13.7193 122.422 4 75 11 291
1983186N04153 1983 29 WP MM VERA 1983-07-14 21:00:00 TS 14.0282 121.804 main 0 0 PPPP______P___ WP031983 13.9998 121.842 72 1 14.1424 121.800 5 65 977 9 27 27 9 100 100 14.0576 121.720 3 58 980 13.9925 121.735 T 67 965 13.9488 121.921 4 72 11 292
1983186N04153 1983 29 WP MM VERA 1983-07-15 00:00:00 TS 14.2400 121.280 60 980 tokyo main 0 0 OOOO______O___ jtwc_wp WP031983 14.2000 121.400 70 1 14.4000 121.200 4 60 980 9 25 25 9 100 100 0 14.2000 121.200 3 58 980 14.2000 121.200 T 65 970 14.2000 121.400 4 70 11 294
1983186N04153 1983 29 WP MM VERA 1983-07-15 03:00:00 TS 14.4521 120.799 main 11 0 PPPP______P___ WP031983 14.4273 120.930 65 1 14.6348 120.600 4 57 980 9 25 25 9 100 100 14.3046 120.850 3 58 981 14.4196 120.765 T 62 975 14.4741 120.850 4 67 11 296
1983186N04153 1983 29 WP MM VERA 1983-07-15 06:00:00 TS 14.7139 120.296 55 980 tokyo main 0 0 OOOO______P___ jtwc_wp WP031983 14.7000 120.400 60 0 14.9000 120.000 4 55 980 9 25 25 9 100 100 0 14.5000 120.500 3 58 982 14.7000 120.300 STS 60 980 14.7697 120.280 4 65 12 301
1983186N04153 1983 29 WP MM VERA 1983-07-15 09:00:00 TS 15.0755 119.708 main 39 39 PPPP______P___ WP031983 15.0350 119.772 60 0 15.2500 119.385 4 55 982 9 25 25 9 100 100 14.9198 120.010 3 58 984 15.0925 119.680 STS 57 982 15.0803 119.694 4 62 14 302
1983186N04153 1983 29 WP MM VERA 1983-07-15 12:00:00 TS 15.4600 119.080 55 985 tokyo main 85 85 OOOO______O___ jtwc_wp WP031983 15.4000 119.100 60 0 15.6000 118.800 4 55 985 9 25 25 9 100 100 0 15.4000 119.400 3 58 986 15.5000 119.000 STS 55 985 15.4000 119.100 2 60 14 300
1983186N04153 1983 29 WP MM VERA 1983-07-15 15:00:00 TS 15.7841 118.449 main 140 140 PPPP______P___ WP031983 15.7574 118.435 62 0 15.8570 118.315 4 57 982 9 25 25 9 100 100 15.7728 118.650 3 58 985 15.8073 118.350 STS 57 977 15.7258 118.495 2 62 14 297
1983186N04153 1983 29 WP MM VERA 1983-07-15 18:00:00 TS 16.0915 117.817 60 980 tokyo main 203 203 OOOO______P___ jtwc_wp WP031983 16.1000 117.800 65 1 16.1000 117.800 4 60 980 9 25 25 9 100 100 0 16.1000 117.900 3 58 984 16.1000 117.700 STS 60 970 16.0573 117.885 2 65 14 298
1983186N04153 1983 29 WP MM VERA 1983-07-15 21:00:00 TS 16.4144 117.194 main 270 270 PPPP______P___ WP031983 16.4147 117.235 67 1 16.4002 117.108 4 62 977 9 32 32 9 125 125 16.4070 117.327 3 63 982 16.4650 117.020 STS 62 967 16.3852 117.282 2 67 13 298
1983186N04153 1983 29 WP MM VERA 1983-07-16 00:00:00 TS 16.7200 116.600 65 975 tokyo main 340 340 OOOO______O___ jtwc_wp WP031983 16.7000 116.700 70 1 16.7000 116.400 5 65 975 9 40 40 9 150 150 0 16.7000 116.800 4 68 980 16.8000 116.400 T 65 965 16.7000 116.700 4 70 12 297
1983186N04153 1983 29 WP MM VERA 1983-07-16 03:00:00 TS 16.9873 116.044 main 410 410 PPPP______P___ WP031983 16.9499 116.142 72 1 16.9649 115.797 5 65 975 9 40 40 9 150 150 17.0150 116.193 4 68 977 17.0221 115.927 T 65 965 16.9845 116.161 4 72 11 297
1983186N04153 1983 29 WP MM VERA 1983-07-16 06:00:00 TS 17.2313 115.528 65 975 tokyo main 467 467 OOOO______P___ jtwc_wp WP031983 17.2000 115.600 75 1 17.2000 115.300 5 65 975 9 40 40 9 150 150 0 17.3000 115.600 4 68 975 17.2000 115.500 T 65 965 17.2563 115.641 4 75 10 297
1983186N04153 1983 29 WP MM VERA 1983-07-16 09:00:00 TS 17.4557 115.064 main 491 434 PPPP______P___ WP031983 17.4922 115.107 77 1 17.3920 114.957 5 65 972 9 40 40 9 150 150 17.4921 115.107 4 68 975 17.3773 115.022 T 65 965 17.5251 115.126 4 77 10 297
1983186N04153 1983 29 WP MM VERA 1983-07-16 12:00:00 TS 17.7000 114.580 65 970 tokyo main 434 362 OOOO______O___ jtwc_wp WP031983 17.8000 114.600 80 1 17.6000 114.600 5 65 970 9 40 40 9 150 150 0 17.7000 114.600 4 68 975 17.6000 114.500 T 65 965 17.8000 114.600 4 80 12 299
1983186N04153 1983 29 WP MM VERA 1983-07-16 15:00:00 TS 18.0089 113.995 main 362 291 PPPP______P___ WP031983 18.1000 114.007 82 1 17.8701 114.037 5 67 970 9 45 45 9 162 162 18.0351 113.958 4 68 972 17.9349 113.915 T 65 965 18.1043 114.055 4 82 13 299
1983186N04153 1983 29 WP MM VERA 1983-07-16 18:00:00 TS 18.3428 113.379 70 970 tokyo main 291 214 OOOO______P___ jtwc_wp WP031983 18.4000 113.400 85 2 18.2000 113.400 5 70 970 9 50 50 9 175 175 0 18.4000 113.300 4 68 970 18.3000 113.300 T 65 965 18.4140 113.495 4 85 13 300
1983186N04153 1983 29 WP MM VERA 1983-07-16 21:00:00 TS 18.6721 112.798 main 214 152 PPPP______P___ WP031983 18.6996 112.857 87 2 18.6075 112.778 5 72 967 9 55 55 9 187 162 18.7221 112.742 4 68 970 18.6148 112.700 T 65 965 18.7167 112.912 4 87 13 300
1983186N04153 1983 29 WP MM VERA 1983-07-17 00:00:00 TS 18.9800 112.220 75 965 tokyo main 142 85 OOOO______O___ jtwc_wp WP031983 19.0000 112.300 90 2 19.0000 112.200 5 75 965 9 60 60 3 200 150 0 19.0000 112.200 4 68 970 18.9000 112.100 T 65 965 19.0000 112.300 4 90 12 298
1983186N04153 1983 29 WP MM VERA 1983-07-17 03:00:00 TS 19.2463 111.637 main 77 15 PPPP______P___ WP031983 19.3223 111.673 85 2 19.2719 111.764 5 75 965 9 65 65 3 250 150 19.2224 111.607 4 68 968 19.1724 111.492 T 62 967 19.2423 111.649 4 85 12 294
1983186N04153 1983 29 WP MM VERA 1983-07-17 06:00:00 TS 19.4730 111.034 75 965 tokyo main 10 0 OOOO______P___ jtwc_wp WP031983 19.6000 111.000 80 1 19.5000 111.300 5 75 965 9 70 70 3 300 150 0 19.4000 111.000 4 68 967 19.4000 110.900 STS 60 970 19.4648 110.971 4 80 12 289
1983186N04153 1983 29 WP MM VERA 1983-07-17 09:00:00 TS 19.6588 110.398 main 0 0 PPPP______P___ WP031983 19.7648 110.307 75 1 19.7501 110.637 5 70 970 9 60 60 3 300 150 19.5498 110.400 4 63 968 19.5495 110.364 STS 57 972 19.6798 110.283 4 75 13 287
1983186N04153 1983 29 WP MM VERA 1983-07-17 12:00:00 TS 19.8400 109.740 65 975 tokyo main 0 0 OOOO______O___ jtwc_wp WP031983 19.9000 109.600 70 1 20.0000 109.900 5 65 975 9 50 50 3 300 150 0 19.7000 109.800 3 58 970 19.7000 109.800 STS 55 975 19.9000 109.600 4 70 13 288
1983186N04153 1983 29 WP MM VERA 1983-07-17 15:00:00 TS 20.0534 109.073 main 39 39 PPPP______P___ WP031983 20.0774 108.885 67 1 20.2496 109.207 5 65 975 9 50 50 3 300 125 19.8622 109.207 3 58 972 19.9424 109.130 STS 55 975 20.1354 108.934 4 66 13 290
1983186N04153 1983 29 WP MM VERA 1983-07-17 18:00:00 TS 20.2922 108.402 65 975 tokyo main 103 61 OOOO______P___ jtwc_wp WP031983 20.3000 108.200 65 1 20.5000 108.500 5 65 975 9 50 50 3 300 100 0 20.1000 108.600 3 58 975 20.2000 108.400 STS 55 975 20.3839 108.282 4 62 14 293
1983186N04153 1983 29 WP MM VERA 1983-07-17 21:00:00 TS 20.5742 107.735 main 54 11 PPPP______P___ WP031983 20.5996 107.593 60 0 20.7498 107.757 5 60 977 9 37 37 3 225 125 20.4991 108.010 3 58 975 20.4151 107.627 STS 55 975 20.6405 107.639 4 58 14 294
1983186N04153 1983 29 WP MM VERA 1983-07-18 00:00:00 TS 20.8500 107.050 55 980 tokyo main 10 0 OOOO______O___ jtwc_wp WP031983 20.9000 107.000 55 0 21.0000 107.000 4 55 980 9 25 25 9 150 150 0 20.9000 107.300 3 58 975 20.6000 106.900 STS 55 975 20.9000 107.000 2 55 14 291
1983186N04153 1983 29 WP MM VERA 1983-07-18 03:00:00 TS 21.0697 106.331 main 0 0 PPPP__________ WP031983 21.1257 106.365 47 0 21.2722 106.250 4 50 985 9 9 125 125 21.1523 106.375 3 53 980 20.7567 106.350 STS 52 977 2 15 285
1983186N04153 1983 29 WP MM VERA 1983-07-18 06:00:00 TS 21.2385 105.546 45 990 tokyo main 0 0 OOOO__________ jtwc_wp WP031983 21.3000 105.700 40 0 21.5000 105.500 3 45 990 0 9 100 100 0 21.3000 105.300 3 48 985 20.9000 105.800 STS 50 980 2 15 280
1983186N04153 1983 29 WP MM VERA 1983-07-18 09:00:00 TS 21.3500 104.700 main 0 0 _PPP__________ WP031983 -1 21.6216 104.787 3 42 991 0 9 100 100 21.3713 104.209 3 38 987 21.0572 105.102 STS 45 985 2 17 278
1983186N04153 1983 29 WP MM VERA 1983-07-18 12:00:00 TS 21.4600 103.790 40 992 tokyo main 0 0 _OOO__________ -1 21.7000 104.000 3 40 992 0 9 100 100 0 21.4000 103.000 1 29 990 21.2000 104.300 TS 40 990 18 278
1983186N04153 1983 29 WP MM VERA 1983-07-18 15:00:00 TS 21.5929 102.785 main 0 0 _PPP__________ -1 21.8075 103.038 3 37 993 0 9 90 90 21.4454 101.643 1 29 992 21.3110 103.420 TS 35 993 19 278
1983186N04153 1983 29 WP MM VERA 1983-07-18 18:00:00 TS 21.7200 101.740 35 994 tokyo main 0 0 _OOO__________ -1 21.9000 102.000 3 35 994 0 9 80 80 0 21.5000 100.200 1 29 995 21.4000 102.500 TD 30 997 17 282
1983186N04153 1983 29 WP MM VERA 1983-07-18 21:00:00 TS 21.9608 100.988 main 0 0 _P____________ -1 21.9608 100.988 3 995 0 9 1 TD 16 280
1983186N04153 1983 29 WP MM VERA 1983-07-19 00:00:00 TS 22.0000 100.000 996 tokyo main 0 _O____________ -1 22.0000 100.000 2 996 0 0 0 18 272

Digital Typhoon Data and Search

About IBTrACS Database

This database is a web-friendly format of International Best Track Archive for Climate Stewardship (IBTrACS), a global best track data archive curated by NOAA dating back to 1842.

Updated: 2021-11-26